Time;durP1;ratioP1;P1;durP2;ratioP2;P2;SDS_P1;SDS_P2;PMS_P1;PMS_P2;Temp;Humidity;BMP_temperature;BMP_pressure;BME280_temperature;BME280_humidity;BME280_pressure;Samples;Min_cycle;Max_cycle;Signal;HPM_P1;HPM_P2
2024/01/08 00:00:25;;;;;;;0.17;0.17;;;;;;;;;;4971662;28;20665;-63
2024/01/08 00:02:52;;;;;;;0.20;0.20;;;;;;;;;;4971318;28;20246;-64
2024/01/08 00:05:19;;;;;;;0.10;0.10;;;;;;;;;;4971685;28;20207;-64
2024/01/08 00:07:46;;;;;;;1.67;0.43;;;;;;;;;;4971359;28;20591;-64
2024/01/08 00:10:15;;;;;;;0.30;0.30;;;;;;;;;;4971496;28;20211;-63
2024/01/08 00:12:42;;;;;;;0.47;0.40;;;;;;;;;;4970898;28;20689;-63
2024/01/08 00:15:09;;;;;;;0.40;0.40;;;;;;;;;;4971199;28;20207;-63
2024/01/08 00:17:37;;;;;;;0.40;0.30;;;;;;;;;;4971716;28;20224;-64
2024/01/08 00:20:04;;;;;;;4.03;3.20;;;;;;;;;;4971153;28;20737;-64
2024/01/08 00:22:31;;;;;;;0.10;0.10;;;;;;;;;;4971159;28;20239;-64
2024/01/08 00:24:58;;;;;;;0.10;0.10;;;;;;;;;;4970450;28;20297;-65
2024/01/08 00:27:26;;;;;;;0.10;0.10;;;;;;;;;;4971377;28;20219;-63
2024/01/08 00:29:53;;;;;;;2.50;0.40;;;;;;;;;;4971243;28;20220;-64
2024/01/08 00:32:20;;;;;;;0.30;0.30;;;;;;;;;;4970947;28;20222;-63
2024/01/08 00:34:47;;;;;;;0.43;0.43;;;;;;;;;;4971002;28;20211;-63
2024/01/08 00:37:15;;;;;;;0.23;0.20;;;;;;;;;;4953235;28;20800;-63
2024/01/08 00:39:43;;;;;;;0.10;0.10;;;;;;;;;;4971245;28;20218;-64
2024/01/08 00:42:10;;;;;;;0.30;0.30;;;;;;;;;;4971031;28;20214;-63
2024/01/08 00:44:38;;;;;;;0.33;0.33;;;;;;;;;;4970872;28;20206;-63
2024/01/08 00:47:05;;;;;;;0.30;0.30;;;;;;;;;;4971115;28;20210;-62
2024/01/08 00:49:32;;;;;;;0.20;0.20;;;;;;;;;;4971255;28;20221;-63
2024/01/08 00:51:59;;;;;;;0.13;0.13;;;;;;;;;;4971302;28;20212;-63
2024/01/08 00:54:26;;;;;;;0.00;0.00;;;;;;;;;;4970221;28;20223;-64
2024/01/08 00:56:53;;;;;;;0.50;0.50;;;;;;;;;;4970657;28;20215;-63
2024/01/08 00:59:20;;;;;;;0.27;0.27;;;;;;;;;;4970730;28;20220;-63
2024/01/08 01:01:49;;;;;;;0.43;0.43;;;;;;;;;;4970776;28;20215;-62
2024/01/08 01:04:16;;;;;;;0.40;0.40;;;;;;;;;;4970344;28;20241;-63
2024/01/08 01:06:44;;;;;;;1.03;0.20;;;;;;;;;;4970268;28;20218;-64
2024/01/08 01:09:11;;;;;;;0.40;0.40;;;;;;;;;;4971189;28;20211;-63
2024/01/08 01:11:38;;;;;;;0.83;0.57;;;;;;;;;;4970895;28;20206;-63
2024/01/08 01:14:05;;;;;;;0.30;0.30;;;;;;;;;;4970747;28;20203;-63
2024/01/08 01:16:32;;;;;;;0.20;0.20;;;;;;;;;;4970895;28;20215;-64
2024/01/08 01:19:01;;;;;;;0.27;0.27;;;;;;;;;;4971062;28;20741;-63
2024/01/08 01:21:28;;;;;;;0.17;0.17;;;;;;;;;;4970327;28;20233;-63
2024/01/08 01:23:56;;;;;;;5.10;0.30;;;;;;;;;;4971293;28;20266;-63
2024/01/08 01:26:23;;;;;;;0.77;0.67;;;;;;;;;;4966962;28;20211;-63
2024/01/08 01:28:50;;;;;;;0.30;0.30;;;;;;;;;;4970555;28;20214;-63
2024/01/08 01:31:17;;;;;;;0.50;0.50;;;;;;;;;;4965076;28;20213;-63
2024/01/08 01:33:44;;;;;;;0.20;0.20;;;;;;;;;;4970891;28;20588;-63
2024/01/08 01:36:12;;;;;;;0.40;0.40;;;;;;;;;;4970777;28;20260;-63
2024/01/08 01:38:39;;;;;;;0.13;0.13;;;;;;;;;;4970819;28;20225;-64
2024/01/08 01:41:06;;;;;;;0.40;0.40;;;;;;;;;;4970425;28;20203;-63
2024/01/08 01:43:33;;;;;;;0.43;0.10;;;;;;;;;;4970073;28;20231;-64
2024/01/08 01:46:04;;;;;;;0.10;0.10;;;;;;;;;;4970847;28;20214;-63
2024/01/08 01:48:31;;;;;;;0.40;0.40;;;;;;;;;;4970488;28;20237;-62
2024/01/08 01:50:58;;;;;;;0.43;0.43;;;;;;;;;;4970283;28;20211;-63
2024/01/08 01:53:27;;;;;;;0.50;0.50;;;;;;;;;;4969886;28;20210;-63
2024/01/08 01:55:54;;;;;;;0.23;0.23;;;;;;;;;;4969359;28;20226;-63
2024/01/08 01:58:22;;;;;;;0.40;0.40;;;;;;;;;;4970322;28;20213;-63
2024/01/08 02:00:49;;;;;;;0.20;0.20;;;;;;;;;;4969130;28;20208;-63
2024/01/08 02:03:17;;;;;;;0.17;0.17;;;;;;;;;;4969934;28;20265;-63
2024/01/08 02:05:44;;;;;;;0.40;0.40;;;;;;;;;;4970386;28;20225;-63
2024/01/08 02:08:12;;;;;;;0.20;0.20;;;;;;;;;;4969837;28;20211;-63
2024/01/08 02:10:42;;;;;;;0.10;0.10;;;;;;;;;;4970144;28;20591;-62
2024/01/08 02:13:09;;;;;;;0.50;0.30;;;;;;;;;;4970127;28;20202;-62
2024/01/08 02:15:36;;;;;;;0.30;0.30;;;;;;;;;;4969902;28;20592;-62
2024/01/08 02:18:03;;;;;;;0.30;0.30;;;;;;;;;;4967696;28;20214;-62
2024/01/08 02:20:30;;;;;;;0.50;0.50;;;;;;;;;;4967545;28;20207;-64
2024/01/08 02:22:59;;;;;;;0.30;0.30;;;;;;;;;;4969678;28;20234;-63
2024/01/08 02:25:27;;;;;;;0.30;0.30;;;;;;;;;;4969323;28;20245;-63
2024/01/08 02:27:54;;;;;;;0.30;0.30;;;;;;;;;;4960410;28;20211;-63
2024/01/08 02:30:21;;;;;;;0.30;0.30;;;;;;;;;;4961621;28;20210;-64
2024/01/08 02:32:48;;;;;;;1.30;0.30;;;;;;;;;;4970151;28;20339;-64
2024/01/08 02:35:15;;;;;;;0.20;0.20;;;;;;;;;;4968121;28;20592;-64
2024/01/08 02:37:42;;;;;;;0.30;0.30;;;;;;;;;;4969548;28;20213;-64
2024/01/08 02:40:11;;;;;;;0.33;0.33;;;;;;;;;;4969351;28;20199;-63
2024/01/08 02:42:40;;;;;;;0.40;0.40;;;;;;;;;;4969583;28;20210;-64
2024/01/08 02:45:07;;;;;;;0.40;0.20;;;;;;;;;;4969428;28;20512;-64
2024/01/08 02:47:37;;;;;;;0.37;0.37;;;;;;;;;;4969198;28;20218;-63
2024/01/08 02:50:04;;;;;;;0.40;0.40;;;;;;;;;;4968092;28;20214;-64
2024/01/08 02:52:31;;;;;;;2.57;0.80;;;;;;;;;;4968954;28;20210;-63
2024/01/08 02:54:58;;;;;;;2.60;1.00;;;;;;;;;;4968561;28;20583;-63
2024/01/08 02:57:28;;;;;;;0.50;0.50;;;;;;;;;;4968706;28;20214;-64
2024/01/08 02:59:55;;;;;;;0.40;0.40;;;;;;;;;;4968095;28;20214;-64
2024/01/08 03:02:22;;;;;;;0.67;0.67;;;;;;;;;;4968789;28;20214;-63
2024/01/08 03:04:49;;;;;;;0.67;0.67;;;;;;;;;;4967746;28;20606;-64
2024/01/08 03:07:17;;;;;;;0.70;0.70;;;;;;;;;;4968719;28;20225;-63
2024/01/08 03:09:45;;;;;;;0.50;0.50;;;;;;;;;;4968373;28;20210;-64
2024/01/08 03:12:12;;;;;;;0.70;0.70;;;;;;;;;;4968814;28;20413;-63
2024/01/08 03:14:41;;;;;;;0.37;0.37;;;;;;;;;;4968327;28;20206;-63
2024/01/08 03:17:08;;;;;;;0.30;0.30;;;;;;;;;;4968574;28;20237;-63
2024/01/08 03:19:35;;;;;;;0.40;0.20;;;;;;;;;;4968644;28;20222;-64
2024/01/08 03:22:02;;;;;;;0.40;0.40;;;;;;;;;;4967790;28;20223;-63
2024/01/08 03:24:29;;;;;;;0.30;0.30;;;;;;;;;;4968535;28;20722;-63
2024/01/08 03:26:56;;;;;;;0.27;0.27;;;;;;;;;;4967799;28;20233;-63
2024/01/08 03:29:24;;;;;;;1.40;0.60;;;;;;;;;;4971037;28;20210;-63
2024/01/08 03:31:52;;;;;;;1.73;0.50;;;;;;;;;;4971780;28;20220;-63
2024/01/08 03:34:19;;;;;;;0.70;0.70;;;;;;;;;;4972179;28;20245;-63
2024/01/08 03:36:46;;;;;;;0.57;0.57;;;;;;;;;;4972192;28;20214;-64
2024/01/08 03:39:13;;;;;;;0.20;0.20;;;;;;;;;;4972089;28;20621;-64
2024/01/08 03:41:40;;;;;;;0.40;0.40;;;;;;;;;;4971757;28;20672;-64
2024/01/08 03:44:08;;;;;;;2.33;0.50;;;;;;;;;;4971974;28;20229;-63
2024/01/08 03:46:35;;;;;;;0.37;0.37;;;;;;;;;;4972328;28;20222;-63
2024/01/08 03:49:04;;;;;;;0.67;0.30;;;;;;;;;;4971639;28;20665;-64
2024/01/08 03:51:31;;;;;;;0.77;0.40;;;;;;;;;;4971812;28;20229;-63
2024/01/08 03:53:59;;;;;;;0.40;0.40;;;;;;;;;;4971859;28;20214;-64
2024/01/08 03:56:26;;;;;;;0.30;0.30;;;;;;;;;;4971761;28;20218;-64
2024/01/08 03:58:53;;;;;;;1.13;0.40;;;;;;;;;;4971708;28;20210;-63
2024/01/08 04:01:20;;;;;;;0.10;0.10;;;;;;;;;;4971528;28;20583;-64
2024/01/08 04:03:47;;;;;;;0.40;0.40;;;;;;;;;;4971997;28;20275;-65
2024/01/08 04:06:16;;;;;;;0.30;0.30;;;;;;;;;;4972726;28;20292;-64
2024/01/08 04:08:43;;;;;;;0.40;0.40;;;;;;;;;;4971624;28;20647;-63
2024/01/08 04:11:10;;;;;;;0.60;0.60;;;;;;;;;;4972216;28;20206;-64
2024/01/08 04:13:39;;;;;;;0.30;0.30;;;;;;;;;;4972079;28;20217;-64
2024/01/08 04:16:06;;;;;;;0.73;0.73;;;;;;;;;;4971598;28;20614;-63
2024/01/08 04:18:33;;;;;;;0.33;0.33;;;;;;;;;;4972071;28;20602;-63
2024/01/08 04:21:00;;;;;;;0.53;0.53;;;;;;;;;;4971831;28;20221;-64
2024/01/08 04:23:28;;;;;;;0.77;0.77;;;;;;;;;;4971559;28;20234;-63
2024/01/08 04:25:55;;;;;;;0.40;0.40;;;;;;;;;;4971939;28;20207;-64
2024/01/08 04:28:22;;;;;;;0.77;0.70;;;;;;;;;;4971696;28;20198;-63
2024/01/08 04:30:50;;;;;;;3.33;0.83;;;;;;;;;;4972265;28;20236;-63
2024/01/08 04:33:17;;;;;;;0.13;0.13;;;;;;;;;;4971195;28;20206;-63
2024/01/08 04:35:44;;;;;;;0.67;0.67;;;;;;;;;;4971584;28;20213;-64
2024/01/08 04:38:11;;;;;;;1.40;0.40;;;;;;;;;;4971918;28;20206;-64
2024/01/08 04:40:39;;;;;;;1.07;0.30;;;;;;;;;;4969614;28;20218;-63
2024/01/08 04:43:06;;;;;;;0.60;0.60;;;;;;;;;;4971491;28;20215;-63
2024/01/08 04:45:33;;;;;;;0.50;0.50;;;;;;;;;;4971694;28;20245;-63
2024/01/08 04:48:00;;;;;;;1.13;0.50;;;;;;;;;;4971196;28;20673;-64
2024/01/08 04:50:27;;;;;;;0.60;0.50;;;;;;;;;;4971653;28;20217;-63
2024/01/08 04:52:54;;;;;;;0.30;0.30;;;;;;;;;;4971407;28;20206;-64
2024/01/08 04:55:21;;;;;;;0.30;0.30;;;;;;;;;;4971823;28;20213;-64
2024/01/08 04:57:50;;;;;;;0.53;0.53;;;;;;;;;;4971378;28;20210;-64
2024/01/08 05:00:17;;;;;;;0.60;0.53;;;;;;;;;;4971424;28;20213;-64
2024/01/08 05:02:45;;;;;;;0.47;0.47;;;;;;;;;;4971331;28;20289;-63
2024/01/08 05:05:12;;;;;;;1.03;0.73;;;;;;;;;;4970706;28;20911;-64
2024/01/08 05:07:39;;;;;;;0.20;0.20;;;;;;;;;;4971316;28;20250;-65
2024/01/08 05:10:07;;;;;;;0.97;0.50;;;;;;;;;;4970863;28;20321;-64
2024/01/08 05:12:34;;;;;;;1.00;0.90;;;;;;;;;;4971469;28;20213;-63
2024/01/08 05:15:02;;;;;;;0.40;0.40;;;;;;;;;;4971029;28;20210;-64
2024/01/08 05:17:29;;;;;;;0.60;0.60;;;;;;;;;;4970950;28;20213;-64
2024/01/08 05:19:56;;;;;;;0.57;0.57;;;;;;;;;;4970660;28;20214;-64
2024/01/08 05:22:23;;;;;;;0.60;0.60;;;;;;;;;;4970090;28;20234;-63
2024/01/08 05:24:51;;;;;;;1.60;0.83;;;;;;;;;;4970178;28;20807;-64
2024/01/08 05:27:18;;;;;;;1.03;0.30;;;;;;;;;;4970805;28;20217;-64
2024/01/08 05:29:45;;;;;;;0.30;0.30;;;;;;;;;;4964738;28;20209;-64
2024/01/08 05:32:13;;;;;;;0.47;0.47;;;;;;;;;;4971034;28;20222;-64
2024/01/08 05:34:41;;;;;;;0.30;0.30;;;;;;;;;;4970277;28;20210;-63
2024/01/08 05:37:09;;;;;;;0.50;0.50;;;;;;;;;;4971018;28;20221;-63
2024/01/08 05:39:36;;;;;;;0.60;0.60;;;;;;;;;;4970558;28;20210;-64
2024/01/08 05:42:04;;;;;;;0.60;0.60;;;;;;;;;;4970694;28;20198;-63
2024/01/08 05:44:31;;;;;;;0.43;0.43;;;;;;;;;;4965306;28;20593;-63
2024/01/08 05:46:58;;;;;;;0.43;0.43;;;;;;;;;;4968055;28;20207;-63
2024/01/08 05:49:26;;;;;;;0.50;0.50;;;;;;;;;;4976650;28;20206;-63
2024/01/08 05:51:53;;;;;;;0.60;0.60;;;;;;;;;;4985533;28;20206;-63
2024/01/08 05:54:20;;;;;;;0.60;0.60;;;;;;;;;;4984836;28;20217;-64
2024/01/08 05:56:47;;;;;;;0.40;0.40;;;;;;;;;;4989836;28;20213;-64
2024/01/08 05:59:14;;;;;;;0.33;0.33;;;;;;;;;;4982496;28;20221;-63
2024/01/08 06:01:43;;;;;;;0.77;0.77;;;;;;;;;;4986455;28;20684;-63
2024/01/08 06:04:10;;;;;;;0.50;0.50;;;;;;;;;;4979695;28;20309;-63
2024/01/08 06:06:38;;;;;;;0.97;0.47;;;;;;;;;;4988588;28;20209;-64
2024/01/08 06:09:08;;;;;;;0.50;0.50;;;;;;;;;;4980663;28;20207;-64
2024/01/08 06:11:35;;;;;;;0.50;0.50;;;;;;;;;;4969255;28;20207;-64
2024/01/08 06:14:05;;;;;;;0.50;0.50;;;;;;;;;;4969789;28;20202;-64
2024/01/08 06:16:35;;;;;;;0.70;0.70;;;;;;;;;;4967949;28;20206;-63
2024/01/08 06:19:02;;;;;;;0.90;0.50;;;;;;;;;;4969116;28;20202;-63
2024/01/08 06:21:29;;;;;;;1.60;0.50;;;;;;;;;;4969574;28;20234;-64
2024/01/08 06:23:57;;;;;;;0.47;0.43;;;;;;;;;;4969504;28;20725;-64
2024/01/08 06:26:26;;;;;;;0.40;0.40;;;;;;;;;;4970035;28;20218;-64
2024/01/08 06:28:53;;;;;;;0.73;0.73;;;;;;;;;;4969630;28;20914;-64
2024/01/08 06:31:20;;;;;;;0.60;0.60;;;;;;;;;;4969393;28;20210;-64
2024/01/08 06:33:47;;;;;;;0.30;0.30;;;;;;;;;;4969294;28;20206;-65
2024/01/08 06:36:14;;;;;;;0.30;0.30;;;;;;;;;;4969740;28;20699;-63
2024/01/08 06:38:41;;;;;;;1.20;0.90;;;;;;;;;;4969947;28;20225;-63
2024/01/08 06:41:11;;;;;;;0.70;0.70;;;;;;;;;;4969254;28;20432;-63
2024/01/08 06:43:38;;;;;;;0.80;0.80;;;;;;;;;;4968766;28;20706;-63
2024/01/08 06:46:07;;;;;;;0.83;0.83;;;;;;;;;;4969226;28;20227;-64
2024/01/08 06:48:34;;;;;;;4.47;2.47;;;;;;;;;;4968243;28;20218;-63
2024/01/08 06:51:02;;;;;;;0.80;0.80;;;;;;;;;;4968397;28;20217;-64
2024/01/08 06:53:29;;;;;;;4.77;2.50;;;;;;;;;;4968695;28;20269;-63
2024/01/08 06:55:56;;;;;;;0.37;0.37;;;;;;;;;;4968514;28;20238;-64
2024/01/08 06:58:24;;;;;;;3.00;1.93;;;;;;;;;;4968093;28;20206;-64
2024/01/08 07:00:51;;;;;;;4.63;2.50;;;;;;;;;;4968073;28;20446;-63
2024/01/08 07:03:18;;;;;;;1.30;1.30;;;;;;;;;;4968309;28;20214;-63
2024/01/08 07:05:45;;;;;;;1.80;1.70;;;;;;;;;;4967947;28;20233;-64
2024/01/08 07:08:13;;;;;;;1.30;1.30;;;;;;;;;;4968681;28;20218;-65
2024/01/08 07:10:40;;;;;;;1.00;1.00;;;;;;;;;;4968442;28;20232;-65
2024/01/08 07:13:07;;;;;;;2.60;1.10;;;;;;;;;;4968353;28;20199;-64
2024/01/08 07:15:39;;;;;;;2.03;0.90;;;;;;;;;;4968355;28;20216;-65
2024/01/08 07:18:08;;;;;;;3.47;1.87;;;;;;;;;;4969027;28;20664;-64
2024/01/08 07:20:36;;;;;;;0.63;0.50;;;;;;;;;;4968813;28;20301;-64
2024/01/08 07:23:03;;;;;;;1.13;1.03;;;;;;;;;;4956342;28;20225;-64
2024/01/08 07:25:32;;;;;;;0.70;0.70;;;;;;;;;;4967979;28;20238;-64
2024/01/08 07:28:00;;;;;;;0.97;0.97;;;;;;;;;;4968808;28;20583;-65
2024/01/08 07:30:27;;;;;;;0.57;0.57;;;;;;;;;;4968686;28;20238;-64
2024/01/08 07:32:56;;;;;;;0.60;0.60;;;;;;;;;;4968941;28;20218;-65
2024/01/08 07:35:23;;;;;;;1.37;1.30;;;;;;;;;;4978943;28;20209;-64
2024/01/08 07:37:55;;;;;;;1.50;1.40;;;;;;;;;;4967804;28;20210;-63
2024/01/08 07:40:23;;;;;;;0.90;0.90;;;;;;;;;;4968946;28;20213;-68
2024/01/08 07:42:50;;;;;;;1.00;0.97;;;;;;;;;;4968601;28;20845;-63
2024/01/08 07:45:17;;;;;;;0.60;0.60;;;;;;;;;;4968259;28;20241;-64
2024/01/08 07:47:44;;;;;;;2.27;2.17;;;;;;;;;;4968131;28;20217;-63
2024/01/08 07:50:12;;;;;;;1.50;1.40;;;;;;;;;;4967924;28;20209;-65
2024/01/08 07:52:39;;;;;;;1.10;1.00;;;;;;;;;;4968422;28;20221;-64
2024/01/08 07:55:07;;;;;;;0.83;0.83;;;;;;;;;;4967904;28;20206;-64
2024/01/08 07:57:35;;;;;;;0.90;0.70;;;;;;;;;;4967203;28;20214;-63
2024/01/08 08:00:02;;;;;;;1.00;1.00;;;;;;;;;;4968247;28;20235;-64
2024/01/08 08:02:29;;;;;;;1.03;0.80;;;;;;;;;;4964194;28;20233;-64
2024/01/08 08:04:56;;;;;;;0.60;0.60;;;;;;;;;;4968349;28;20592;-65
2024/01/08 08:07:24;;;;;;;0.73;0.63;;;;;;;;;;4967947;28;20216;-65
2024/01/08 08:09:51;;;;;;;0.40;0.40;;;;;;;;;;4949306;29;20213;-64
2024/01/08 08:12:19;;;;;;;1.23;1.23;;;;;;;;;;4966416;28;21487;-65
2024/01/08 08:14:47;;;;;;;1.47;0.70;;;;;;;;;;4969446;28;20203;-64
2024/01/08 08:17:14;;;;;;;0.87;0.63;;;;;;;;;;4971872;28;20759;-65
2024/01/08 08:19:42;;;;;;;0.63;0.63;;;;;;;;;;4970934;28;20215;-65
2024/01/08 08:22:11;;;;;;;1.30;0.63;;;;;;;;;;4968446;28;20231;-65
2024/01/08 08:24:39;;;;;;;0.60;0.60;;;;;;;;;;4971711;28;20259;-65
2024/01/08 08:27:06;;;;;;;0.60;0.60;;;;;;;;;;4971079;28;20219;-62
2024/01/08 08:29:33;;;;;;;0.50;0.50;;;;;;;;;;4970732;28;20204;-63
2024/01/08 08:32:00;;;;;;;0.70;0.70;;;;;;;;;;4971396;28;20599;-65
2024/01/08 08:34:27;;;;;;;0.83;0.63;;;;;;;;;;4969447;28;20209;-63
2024/01/08 08:36:54;;;;;;;2.57;0.97;;;;;;;;;;4968012;28;20213;-63
2024/01/08 08:39:21;;;;;;;0.40;0.40;;;;;;;;;;4968303;28;20216;-64
2024/01/08 08:41:50;;;;;;;0.83;0.83;;;;;;;;;;4971135;28;20720;-63
2024/01/08 08:44:17;;;;;;;1.03;1.00;;;;;;;;;;4968968;28;20212;-63
2024/01/08 08:46:44;;;;;;;0.70;0.70;;;;;;;;;;4971340;28;20323;-65
2024/01/08 08:49:13;;;;;;;2.83;1.70;;;;;;;;;;4969429;28;20205;-63
2024/01/08 08:51:40;;;;;;;1.77;1.47;;;;;;;;;;4971034;28;20213;-64
2024/01/08 08:54:07;;;;;;;1.90;1.80;;;;;;;;;;4971167;28;20216;-63
2024/01/08 08:56:35;;;;;;;2.63;2.13;;;;;;;;;;4971065;28;20208;-63
2024/01/08 08:59:03;;;;;;;2.83;0.90;;;;;;;;;;4971015;28;20216;-63
2024/01/08 09:01:31;;;;;;;3.77;2.70;;;;;;;;;;4972849;28;20268;-63
2024/01/08 09:03:58;;;;;;;1.17;1.17;;;;;;;;;;4970794;28;20213;-64
2024/01/08 09:06:26;;;;;;;2.03;1.70;;;;;;;;;;4970379;28;20236;-64
2024/01/08 09:08:54;;;;;;;1.30;0.97;;;;;;;;;;4970648;28;20213;-64
2024/01/08 09:11:21;;;;;;;3.13;2.03;;;;;;;;;;4970681;28;20571;-64
2024/01/08 09:13:48;;;;;;;1.73;1.63;;;;;;;;;;4970098;28;20580;-64
2024/01/08 09:16:17;;;;;;;1.50;1.50;;;;;;;;;;4970613;28;20205;-64
2024/01/08 09:18:45;;;;;;;1.40;1.30;;;;;;;;;;4970714;28;20436;-65
2024/01/08 09:21:12;;;;;;;0.70;0.70;;;;;;;;;;4969965;28;20232;-66
2024/01/08 09:23:39;;;;;;;6.30;1.23;;;;;;;;;;4970637;28;20242;-65
2024/01/08 09:26:07;;;;;;;0.90;0.90;;;;;;;;;;4969382;28;20312;-63
2024/01/08 09:28:34;;;;;;;2.97;1.93;;;;;;;;;;4970498;28;20210;-63
2024/01/08 09:31:01;;;;;;;1.40;1.30;;;;;;;;;;4969118;28;20600;-64
2024/01/08 09:33:30;;;;;;;1.30;1.17;;;;;;;;;;4983983;28;20215;-65
2024/01/08 09:35:57;;;;;;;1.03;0.80;;;;;;;;;;4970145;28;20214;-64
2024/01/08 09:38:24;;;;;;;0.87;0.87;;;;;;;;;;4969737;28;20231;-64
2024/01/08 09:40:51;;;;;;;0.80;0.80;;;;;;;;;;4984286;28;20400;-66
2024/01/08 09:43:19;;;;;;;2.40;1.17;;;;;;;;;;4989227;28;20693;-65
2024/01/08 09:45:52;;;;;;;0.80;0.80;;;;;;;;;;4970907;28;20301;-64
2024/01/08 09:48:19;;;;;;;1.17;1.07;;;;;;;;;;4969633;28;20221;-64
2024/01/08 09:50:48;;;;;;;3.43;1.40;;;;;;;;;;4968448;28;20427;-65
2024/01/08 09:53:16;;;;;;;2.00;1.50;;;;;;;;;;4970141;28;20229;-64
2024/01/08 09:55:44;;;;;;;1.93;1.83;;;;;;;;;;4969656;28;20194;-64
2024/01/08 09:58:11;;;;;;;1.70;1.60;;;;;;;;;;4969252;28;20207;-64
2024/01/08 10:00:39;;;;;;;3.27;1.60;;;;;;;;;;4969104;28;20202;-64
2024/01/08 10:03:06;;;;;;;1.53;1.33;;;;;;;;;;4970125;28;20207;-63
2024/01/08 10:05:35;;;;;;;1.53;0.83;;;;;;;;;;4969644;28;20233;-63
2024/01/08 10:08:04;;;;;;;1.63;1.53;;;;;;;;;;4970239;28;20214;-65
2024/01/08 10:10:31;;;;;;;1.10;1.10;;;;;;;;;;4970061;28;20222;-65
2024/01/08 10:12:59;;;;;;;1.07;0.67;;;;;;;;;;4970235;28;20237;-65
2024/01/08 10:15:26;;;;;;;1.10;1.00;;;;;;;;;;4969569;28;20230;-64
2024/01/08 10:17:54;;;;;;;1.73;1.63;;;;;;;;;;4969840;28;20214;-64
2024/01/08 10:20:22;;;;;;;2.58;1.52;;;;;;;;;;4968973;28;20548;-59
2024/01/08 10:23:04;;;;;;;0.50;0.50;;;;;;;;;;4969816;28;20237;-63
2024/01/08 10:25:32;;;;;;;1.07;1.07;;;;;;;;;;4969445;28;20606;-65
2024/01/08 10:27:59;;;;;;;2.70;1.57;;;;;;;;;;4969203;28;20687;-65
2024/01/08 10:30:26;;;;;;;0.57;0.57;;;;;;;;;;4969329;28;20208;-64
2024/01/08 10:32:58;;;;;;;1.07;1.07;;;;;;;;;;4969642;28;20281;-65
2024/01/08 10:35:25;;;;;;;0.53;0.53;;;;;;;;;;4969106;28;20682;-65
2024/01/08 10:37:54;;;;;;;2.30;1.83;;;;;;;;;;4969216;28;20211;-64
2024/01/08 10:40:21;;;;;;;2.03;1.57;;;;;;;;;;4978870;28;20222;-63
2024/01/08 10:42:49;;;;;;;1.47;0.50;;;;;;;;;;4970580;28;20212;-69
2024/01/08 10:45:16;;;;;;;1.80;1.70;;;;;;;;;;4969376;28;20215;-64
2024/01/08 10:47:46;;;;;;;0.77;0.77;;;;;;;;;;4969279;28;20235;-65
2024/01/08 10:50:14;;;;;;;3.40;1.47;;;;;;;;;;4966472;28;20216;-62
2024/01/08 10:52:46;;;;;;;1.83;1.60;;;;;;;;;;4967221;28;20577;-64
2024/01/08 10:55:15;;;;;;;0.63;0.63;;;;;;;;;;4968157;28;20216;-64
2024/01/08 10:57:45;;;;;;;0.53;0.53;;;;;;;;;;4969406;28;20226;-64
2024/01/08 11:00:14;;;;;;;1.07;0.60;;;;;;;;;;4968797;28;20251;-64
2024/01/08 11:02:44;;;;;;;1.57;1.47;;;;;;;;;;4968374;28;20214;-65
2024/01/08 11:05:13;;;;;;;0.80;0.80;;;;;;;;;;4968498;28;20744;-66
2024/01/08 11:07:42;;;;;;;5.47;0.90;;;;;;;;;;4971539;28;20216;-65
2024/01/08 11:10:10;;;;;;;1.50;1.10;;;;;;;;;;4967816;28;20206;-64
2024/01/08 11:12:37;;;;;;;5.03;2.10;;;;;;;;;;4967859;28;20214;-64
2024/01/08 11:15:05;;;;;;;0.77;0.77;;;;;;;;;;4967758;28;20238;-63
2024/01/08 11:17:33;;;;;;;0.30;0.30;;;;;;;;;;4968085;28;20574;-65
2024/01/08 11:20:05;;;;;;;1.37;1.00;;;;;;;;;;4967343;28;20991;-65
2024/01/08 11:22:33;;;;;;;1.03;1.03;;;;;;;;;;4965401;28;20723;-65
2024/01/08 11:25:03;;;;;;;2.93;0.83;;;;;;;;;;4968190;28;20233;-66
2024/01/08 11:27:32;;;;;;;1.13;1.03;;;;;;;;;;4968074;28;20232;-59
2024/01/08 11:30:01;;;;;;;1.00;1.00;;;;;;;;;;4968290;28;20478;-65
2024/01/08 11:32:46;;;;;;;1.42;1.40;;;;;;;;;;4967217;28;20462;-64
2024/01/08 11:35:15;;;;;;;1.37;1.07;;;;;;;;;;4931896;28;20221;-65
2024/01/08 11:37:44;;;;;;;1.40;1.00;;;;;;;;;;4968242;28;20206;-64
2024/01/08 11:40:16;;;;;;;1.10;1.00;;;;;;;;;;4968275;28;20216;-72
2024/01/08 11:42:44;;;;;;;1.87;1.60;;;;;;;;;;4966877;28;20213;-64
2024/01/08 11:45:11;;;;;;;1.03;0.93;;;;;;;;;;4967046;28;20214;-62
2024/01/08 11:47:38;;;;;;;2.37;0.97;;;;;;;;;;4968346;28;20244;-63
2024/01/08 11:50:06;;;;;;;0.90;0.90;;;;;;;;;;4968652;28;20209;-64
2024/01/08 11:52:37;;;;;;;5.10;1.33;;;;;;;;;;4970541;28;20751;-64
2024/01/08 11:55:05;;;;;;;1.37;1.27;;;;;;;;;;4972003;28;20213;-64
2024/01/08 11:57:32;;;;;;;2.90;0.93;;;;;;;;;;4970980;28;20614;-64
2024/01/08 11:59:59;;;;;;;1.97;1.57;;;;;;;;;;4967075;28;20214;-63
2024/01/08 12:02:27;;;;;;;1.20;1.10;;;;;;;;;;4970624;28;20217;-63
2024/01/08 12:04:55;;;;;;;1.40;1.33;;;;;;;;;;4970714;28;20234;-79
2024/01/08 12:07:22;;;;;;;1.93;1.03;;;;;;;;;;4970525;28;20226;-64
2024/01/08 12:09:51;;;;;;;1.57;1.47;;;;;;;;;;4972118;28;20216;-64
2024/01/08 12:12:19;;;;;;;1.40;1.30;;;;;;;;;;4971161;28;20224;-65
2024/01/08 12:14:46;;;;;;;1.60;1.10;;;;;;;;;;4970489;28;20235;-65
2024/01/08 12:17:14;;;;;;;1.40;1.30;;;;;;;;;;4971437;28;20210;-66
2024/01/08 12:19:42;;;;;;;1.43;1.33;;;;;;;;;;4971398;28;20217;-65
2024/01/08 12:22:11;;;;;;;1.80;0.93;;;;;;;;;;4964436;28;20234;-63
2024/01/08 12:24:38;;;;;;;1.30;1.20;;;;;;;;;;4957705;28;20250;-62
2024/01/08 12:27:07;;;;;;;1.80;1.70;;;;;;;;;;4970406;28;20237;-66
2024/01/08 12:29:38;;;;;;;1.50;1.37;;;;;;;;;;4969648;28;20220;-65
2024/01/08 12:32:05;;;;;;;0.60;0.60;;;;;;;;;;4972237;28;20222;-64
2024/01/08 12:34:32;;;;;;;1.57;1.47;;;;;;;;;;4971954;28;20213;-65
2024/01/08 12:37:00;;;;;;;3.13;1.67;;;;;;;;;;4971435;28;20203;-65
2024/01/08 12:39:29;;;;;;;1.27;1.10;;;;;;;;;;4970082;28;20216;-66
2024/01/08 12:41:58;;;;;;;1.97;1.37;;;;;;;;;;4971125;28;20210;-64
2024/01/08 12:44:27;;;;;;;1.60;1.23;;;;;;;;;;4971971;28;20637;-65
2024/01/08 12:46:54;;;;;;;2.60;1.87;;;;;;;;;;4970205;28;20522;-65
2024/01/08 12:49:21;;;;;;;2.93;1.60;;;;;;;;;;4970542;28;20213;-63
2024/01/08 12:51:48;;;;;;;1.30;1.20;;;;;;;;;;4970952;28;20220;-64
2024/01/08 12:54:15;;;;;;;1.27;1.17;;;;;;;;;;4968449;28;20210;-65
2024/01/08 12:56:43;;;;;;;2.80;1.70;;;;;;;;;;4969839;28;20210;-66
2024/01/08 12:59:10;;;;;;;2.27;1.33;;;;;;;;;;4971087;28;20216;-66
2024/01/08 13:01:39;;;;;;;1.00;1.00;;;;;;;;;;4969009;28;20694;-64
2024/01/08 13:04:06;;;;;;;3.67;1.17;;;;;;;;;;4971368;28;20632;-64
2024/01/08 13:06:33;;;;;;;2.60;1.30;;;;;;;;;;4971207;28;20719;-63
2024/01/08 13:09:00;;;;;;;0.93;0.70;;;;;;;;;;4965950;28;20272;-63
2024/01/08 13:11:27;;;;;;;0.47;0.47;;;;;;;;;;4970326;28;20279;-63
2024/01/08 13:13:54;;;;;;;2.20;1.63;;;;;;;;;;4969761;28;20692;-63
2024/01/08 13:16:21;;;;;;;1.23;1.13;;;;;;;;;;4970835;28;20210;-64
2024/01/08 13:18:50;;;;;;;1.67;1.53;;;;;;;;;;4968818;28;20207;-64
2024/01/08 13:21:17;;;;;;;0.83;0.83;;;;;;;;;;4970646;28;20264;-63
2024/01/08 13:23:45;;;;;;;1.00;0.93;;;;;;;;;;4965381;28;20251;-64
2024/01/08 13:26:13;;;;;;;1.50;1.27;;;;;;;;;;4963012;28;20219;-63
2024/01/08 13:28:41;;;;;;;2.93;2.00;;;;;;;;;;4970447;28;20208;-64
2024/01/08 13:31:08;;;;;;;3.00;1.73;;;;;;;;;;4971001;28;20270;-64
2024/01/08 13:33:35;;;;;;;2.37;1.67;;;;;;;;;;4967058;28;20209;-63
2024/01/08 13:36:04;;;;;;;2.93;1.13;;;;;;;;;;4970649;28;20212;-64
2024/01/08 13:38:31;;;;;;;1.43;1.37;;;;;;;;;;4968883;28;20681;-63
2024/01/08 13:41:00;;;;;;;2.63;2.23;;;;;;;;;;4965550;28;20667;-64
2024/01/08 13:43:27;;;;;;;1.27;1.13;;;;;;;;;;4962136;28;20215;-63
2024/01/08 13:45:55;;;;;;;2.03;1.80;;;;;;;;;;4970598;28;20673;-64
2024/01/08 13:48:22;;;;;;;3.93;2.17;;;;;;;;;;4970456;28;20735;-64
2024/01/08 13:50:50;;;;;;;3.07;1.40;;;;;;;;;;4969986;28;20212;-64
2024/01/08 13:53:20;;;;;;;6.27;1.97;;;;;;;;;;4970157;28;20678;-64
2024/01/08 13:55:47;;;;;;;1.67;0.97;;;;;;;;;;4969856;28;20240;-64
2024/01/08 13:58:14;;;;;;;3.93;2.37;;;;;;;;;;4970646;28;20213;-64
2024/01/08 14:00:42;;;;;;;1.20;1.20;;;;;;;;;;4970189;28;20212;-64
2024/01/08 14:03:09;;;;;;;2.23;2.03;;;;;;;;;;4970353;28;20208;-63
2024/01/08 14:05:37;;;;;;;2.40;1.83;;;;;;;;;;4970143;28;20216;-64
2024/01/08 14:08:04;;;;;;;2.00;1.77;;;;;;;;;;4970007;28;20231;-63
2024/01/08 14:10:32;;;;;;;2.17;1.97;;;;;;;;;;4969909;28;20211;-64
2024/01/08 14:13:01;;;;;;;3.43;3.07;;;;;;;;;;4969262;28;20216;-65
2024/01/08 14:15:28;;;;;;;5.63;2.20;;;;;;;;;;4970132;28;21067;-63
2024/01/08 14:17:57;;;;;;;2.40;2.20;;;;;;;;;;4969852;28;20206;-62
2024/01/08 14:20:25;;;;;;;3.55;2.88;;;;;;;;;;4968847;28;20446;-65
2024/01/08 14:22:52;;;;;;;1.63;1.33;;;;;;;;;;4969761;28;20303;-61
2024/01/08 14:25:19;;;;;;;2.70;2.40;;;;;;;;;;4969925;28;20256;-67
2024/01/08 14:27:47;;;;;;;3.80;2.47;;;;;;;;;;4969693;28;20226;-65
2024/01/08 14:30:15;;;;;;;5.80;3.37;;;;;;;;;;4969407;28;20218;-65
2024/01/08 14:32:42;;;;;;;4.90;2.43;;;;;;;;;;4969422;28;20239;-66
2024/01/08 14:35:10;;;;;;;2.17;2.00;;;;;;;;;;4969737;28;20211;-66
2024/01/08 14:37:37;;;;;;;5.07;2.30;;;;;;;;;;4969021;28;20263;-64
2024/01/08 14:40:04;;;;;;;3.33;2.50;;;;;;;;;;4969310;28;20223;-65
2024/01/08 14:42:31;;;;;;;3.13;2.20;;;;;;;;;;4969303;28;20222;-65
2024/01/08 14:45:00;;;;;;;1.63;1.50;;;;;;;;;;4969105;28;20200;-65